createdAt,value
2019-05-22T00:00:30.711Z,815.38
2019-05-22T00:01:30.720Z,815.39
2019-05-22T00:02:30.735Z,815.38
2019-05-22T00:03:30.741Z,815.39
2019-05-22T00:04:30.773Z,815.40
2019-05-22T00:05:30.762Z,815.35
2019-05-22T00:06:30.776Z,815.38
2019-05-22T00:07:30.789Z,815.33
2019-05-22T00:08:30.840Z,815.34
2019-05-22T00:09:30.879Z,815.33
2019-05-22T00:10:30.817Z,815.31
2019-05-22T00:11:30.830Z,815.33
2019-05-22T00:12:45.698Z,815.33
2019-05-22T00:13:30.848Z,815.32
2019-05-22T00:14:30.863Z,815.30
2019-05-22T00:15:30.926Z,815.34
2019-05-22T00:16:30.882Z,815.32
2019-05-22T00:17:30.895Z,815.33
2019-05-22T00:18:30.903Z,815.34
2019-05-22T00:19:30.920Z,815.31
2019-05-22T00:20:30.928Z,815.31
2019-05-22T00:21:30.934Z,815.29
2019-05-22T00:22:30.947Z,815.33
2019-05-22T00:23:30.957Z,815.28
2019-05-22T00:24:30.964Z,815.33
2019-05-22T00:25:33.175Z,815.33
2019-05-22T00:26:30.986Z,815.34
2019-05-22T00:27:30.999Z,815.36
2019-05-22T00:28:31.047Z,815.32
2019-05-22T00:29:31.022Z,815.33
2019-05-22T00:30:31.032Z,815.33
2019-05-22T00:31:31.048Z,815.32
2019-05-22T00:32:31.053Z,815.36
2019-05-22T00:33:31.060Z,815.35
2019-05-22T00:34:31.074Z,815.36
2019-05-22T00:35:31.086Z,815.32
2019-05-22T00:36:31.092Z,815.36
2019-05-22T00:37:31.103Z,815.32
2019-05-22T00:38:31.114Z,815.35
2019-05-22T00:39:31.179Z,815.32
2019-05-22T00:40:31.179Z,815.34
2019-05-22T00:41:31.145Z,815.35
2019-05-22T00:42:31.190Z,815.33
2019-05-22T00:43:31.166Z,815.35
2019-05-22T00:44:31.176Z,815.33
2019-05-22T00:45:31.191Z,815.33
2019-05-22T00:46:31.200Z,815.34
2019-05-22T00:47:31.210Z,815.36
2019-05-22T00:48:31.244Z,815.38
2019-05-22T00:49:31.229Z,815.40
2019-05-22T00:50:31.241Z,815.35
2019-05-22T00:51:31.252Z,815.37
2019-05-22T00:52:31.267Z,815.34
2019-05-22T00:53:31.282Z,815.38
2019-05-22T00:54:31.288Z,815.38
2019-05-22T00:55:31.301Z,815.39
2019-05-22T00:56:31.306Z,815.39
2019-05-22T00:57:31.316Z,815.39
2019-05-22T00:58:31.330Z,815.38
2019-05-22T00:59:31.341Z,815.40
2019-05-22T01:00:34.799Z,815.44
2019-05-22T01:01:31.363Z,815.42
2019-05-22T01:02:31.376Z,815.38
2019-05-22T01:03:31.383Z,815.39
2019-05-22T01:04:31.393Z,815.37
2019-05-22T01:05:31.404Z,815.35
2019-05-22T01:06:31.411Z,815.37
2019-05-22T01:07:31.422Z,815.38
2019-05-22T01:08:31.436Z,815.40
2019-05-22T01:09:31.461Z,815.39
2019-05-22T01:10:31.455Z,815.37
2019-05-22T01:11:31.519Z,815.39
2019-05-22T01:12:31.535Z,815.40
2019-05-22T01:13:31.488Z,815.38
2019-05-22T01:14:42.344Z,815.38
2019-05-22T01:15:31.513Z,815.39
2019-05-22T01:16:31.526Z,815.38
2019-05-22T01:17:31.570Z,815.35
2019-05-22T01:18:31.557Z,815.33
2019-05-22T01:19:31.586Z,815.33
2019-05-22T01:20:31.563Z,815.34
2019-05-22T01:21:31.573Z,815.35
2019-05-22T01:22:31.585Z,815.36
2019-05-22T01:23:31.595Z,815.34
2019-05-22T01:24:31.606Z,815.33
2019-05-22T01:25:31.618Z,815.30
2019-05-22T01:26:31.626Z,815.32
2019-05-22T01:27:31.635Z,815.29
2019-05-22T01:28:31.649Z,815.29
2019-05-22T01:29:31.666Z,815.30
2019-05-22T01:30:31.671Z,815.33
2019-05-22T01:31:31.683Z,815.31
2019-05-22T01:32:31.693Z,815.34
2019-05-22T01:33:31.699Z,815.30
2019-05-22T01:34:31.711Z,815.33
2019-05-22T01:35:31.724Z,815.30
2019-05-22T01:36:31.736Z,815.32
2019-05-22T01:37:31.744Z,815.31
2019-05-22T01:38:31.755Z,815.33
2019-05-22T01:39:31.767Z,815.31
2019-05-22T01:40:31.774Z,815.30
2019-05-22T01:41:31.791Z,815.27
2019-05-22T01:42:31.795Z,815.31
2019-05-22T01:43:31.808Z,815.32
2019-05-22T01:44:31.827Z,815.30
2019-05-22T01:45:31.833Z,815.32
2019-05-22T01:46:31.846Z,815.32
2019-05-22T01:47:31.850Z,815.34
2019-05-22T01:48:31.861Z,815.36
2019-05-22T01:49:31.877Z,815.34
2019-05-22T01:50:31.884Z,815.33
2019-05-22T01:51:31.907Z,815.32
2019-05-22T01:52:31.903Z,815.33
2019-05-22T01:53:31.915Z,815.34
2019-05-22T01:54:31.931Z,815.31
2019-05-22T01:55:31.940Z,815.32
2019-05-22T01:56:31.948Z,815.27
2019-05-22T01:57:31.961Z,815.26
2019-05-22T01:58:31.969Z,815.30
2019-05-22T01:59:31.984Z,815.29
2019-05-22T02:00:31.993Z,815.25
2019-05-22T02:01:32.008Z,815.29
2019-05-22T02:02:32.016Z,815.27
2019-05-22T02:03:32.022Z,815.30
2019-05-22T02:04:32.031Z,815.32
2019-05-22T02:05:32.049Z,815.27
2019-05-22T02:06:32.060Z,815.29
2019-05-22T02:07:32.096Z,815.34
2019-05-22T02:08:32.083Z,815.34
2019-05-22T02:09:32.149Z,815.34
2019-05-22T02:10:32.097Z,815.34
2019-05-22T02:11:32.109Z,815.33
2019-05-22T02:12:32.124Z,815.32
2019-05-22T02:13:32.128Z,815.36
2019-05-22T02:14:32.136Z,815.37
2019-05-22T02:15:32.149Z,815.38
2019-05-22T02:16:32.161Z,815.35
2019-05-22T02:17:32.172Z,815.37
2019-05-22T02:18:32.178Z,815.34
2019-05-22T02:19:32.189Z,815.33
2019-05-22T02:20:32.200Z,815.36
2019-05-22T02:21:32.217Z,815.33
2019-05-22T02:22:32.239Z,815.36
2019-05-22T02:23:32.232Z,815.32
2019-05-22T02:24:32.242Z,815.34
2019-05-22T02:25:32.251Z,815.35
2019-05-22T02:26:32.273Z,815.34
2019-05-22T02:27:32.272Z,815.35
2019-05-22T02:28:32.281Z,815.33
2019-05-22T02:29:32.301Z,815.35
2019-05-22T02:30:32.301Z,815.33
2019-05-22T02:31:32.311Z,815.33
2019-05-22T02:32:32.322Z,815.32
2019-05-22T02:33:32.328Z,815.35
2019-05-22T02:34:32.344Z,815.31
2019-05-22T02:35:32.348Z,815.30
2019-05-22T02:36:32.365Z,815.30
2019-05-22T02:37:32.369Z,815.33
2019-05-22T02:38:32.378Z,815.29
2019-05-22T02:39:32.397Z,815.29
2019-05-22T02:40:32.406Z,815.31
2019-05-22T02:41:32.417Z,815.29
2019-05-22T02:42:32.426Z,815.31
2019-05-22T02:43:32.438Z,815.30
2019-05-22T02:44:32.443Z,815.31
2019-05-22T02:45:32.468Z,815.29
2019-05-22T02:46:32.463Z,815.32
2019-05-22T02:47:32.481Z,815.33
2019-05-22T02:48:32.504Z,815.32
2019-05-22T02:49:32.491Z,815.31
2019-05-22T02:50:32.506Z,815.33
2019-05-22T02:51:32.508Z,815.34
2019-05-22T02:52:32.520Z,815.33
2019-05-22T02:53:32.530Z,815.30
2019-05-22T02:54:32.578Z,815.29
2019-05-22T02:55:32.556Z,815.31
2019-05-22T02:56:32.565Z,815.27
2019-05-22T02:57:32.578Z,815.26
2019-05-22T02:58:32.592Z,815.28
2019-05-22T02:59:32.596Z,815.31
2019-05-22T03:00:32.610Z,815.29
2019-05-22T03:01:32.614Z,815.31
2019-05-22T03:02:32.626Z,815.28
2019-05-22T03:03:32.640Z,815.26
2019-05-22T03:04:32.644Z,815.30
2019-05-22T03:05:32.660Z,815.28
2019-05-22T03:06:32.666Z,815.28
2019-05-22T03:07:32.680Z,815.27
2019-05-22T03:08:32.691Z,815.27
2019-05-22T03:09:32.702Z,815.28
2019-05-22T03:10:32.707Z,815.25
2019-05-22T03:11:35.189Z,815.28
2019-05-22T03:12:32.760Z,815.30
2019-05-22T03:13:32.742Z,815.29
2019-05-22T03:14:32.747Z,815.29
2019-05-22T03:15:32.762Z,815.28
2019-05-22T03:16:32.775Z,815.28
2019-05-22T03:17:32.779Z,815.28
2019-05-22T03:18:32.789Z,815.25
2019-05-22T03:19:32.804Z,815.24
2019-05-22T03:20:32.809Z,815.31
2019-05-22T03:21:32.821Z,815.31
2019-05-22T03:22:32.829Z,815.33
2019-05-22T03:23:32.851Z,815.30
2019-05-22T03:24:32.852Z,815.24
2019-05-22T03:25:32.863Z,815.26
2019-05-22T03:26:32.881Z,815.33
2019-05-22T03:27:32.886Z,815.29
2019-05-22T03:28:32.896Z,815.30
2019-05-22T03:29:32.906Z,815.32
2019-05-22T03:30:33.013Z,815.30
2019-05-22T03:31:32.929Z,815.32
2019-05-22T03:32:32.945Z,815.31
2019-05-22T03:33:32.973Z,815.25
2019-05-22T03:34:32.963Z,815.28
2019-05-22T03:35:32.978Z,815.26
2019-05-22T03:36:32.976Z,815.32
2019-05-22T03:37:32.997Z,815.27
2019-05-22T03:38:32.997Z,815.25
2019-05-22T03:39:33.011Z,815.30
2019-05-22T03:40:33.019Z,815.27
2019-05-22T03:41:33.039Z,815.23
2019-05-22T03:42:33.044Z,815.28
2019-05-22T03:43:33.052Z,815.24
2019-05-22T03:44:33.063Z,815.24
2019-05-22T03:45:33.176Z,815.26
2019-05-22T03:46:33.080Z,815.26
2019-05-22T03:47:33.092Z,815.24
2019-05-22T03:48:33.104Z,815.25
2019-05-22T03:49:33.116Z,815.27
2019-05-22T03:50:33.123Z,815.23
2019-05-22T03:51:33.137Z,815.26
2019-05-22T03:52:33.164Z,815.24
2019-05-22T03:53:33.152Z,815.22
2019-05-22T03:54:33.185Z,815.28
2019-05-22T03:55:33.173Z,815.27
2019-05-22T03:56:33.182Z,815.28
2019-05-22T03:57:33.200Z,815.26
2019-05-22T03:58:33.204Z,815.26
2019-05-22T03:59:33.218Z,815.26
2019-05-22T04:00:33.234Z,815.27
2019-05-22T04:01:33.247Z,815.25
2019-05-22T04:02:33.248Z,815.27
2019-05-22T04:03:33.257Z,815.27
2019-05-22T04:04:33.266Z,815.30
2019-05-22T04:05:33.291Z,815.28
2019-05-22T04:06:33.290Z,815.27
2019-05-22T04:07:33.300Z,815.30
2019-05-22T04:08:33.312Z,815.27
2019-05-22T04:09:33.327Z,815.30
2019-05-22T04:10:33.342Z,815.32
2019-05-22T04:11:33.345Z,815.30
2019-05-22T04:12:33.349Z,815.32
2019-05-22T04:13:33.364Z,815.30
2019-05-22T04:14:33.375Z,815.28
2019-05-22T04:15:33.391Z,815.34
2019-05-22T04:16:33.394Z,815.35
2019-05-22T04:17:33.401Z,815.37
2019-05-22T04:18:33.419Z,815.32
2019-05-22T04:19:48.740Z,815.34
2019-05-22T04:20:33.454Z,815.32
2019-05-22T04:21:33.443Z,815.37
2019-05-22T04:22:33.454Z,815.32
2019-05-22T04:23:33.464Z,815.35
2019-05-22T04:24:33.491Z,815.35
2019-05-22T04:25:33.495Z,815.33
2019-05-22T04:26:33.531Z,815.35
2019-05-22T04:27:33.515Z,815.37
2019-05-22T04:28:33.518Z,815.36
2019-05-22T04:29:33.525Z,815.37
2019-05-22T04:30:33.535Z,815.34
2019-05-22T04:31:33.550Z,815.36
2019-05-22T04:32:33.565Z,815.37
2019-05-22T04:33:33.567Z,815.38
2019-05-22T04:34:33.579Z,815.39
2019-05-22T04:35:33.598Z,815.41
2019-05-22T04:36:33.605Z,815.41
2019-05-22T04:37:33.610Z,815.44
2019-05-22T04:38:33.621Z,815.44
2019-05-22T04:39:33.636Z,815.44
2019-05-22T04:40:33.643Z,815.44
2019-05-22T04:41:33.648Z,815.40
2019-05-22T04:42:33.661Z,815.43
2019-05-22T04:43:33.673Z,815.43
2019-05-22T04:44:33.682Z,815.42
2019-05-22T04:45:33.692Z,815.43
2019-05-22T04:46:33.701Z,815.44
2019-05-22T04:47:33.714Z,815.47
2019-05-22T04:48:33.724Z,815.48
2019-05-22T04:49:33.733Z,815.48
2019-05-22T04:50:33.748Z,815.53
2019-05-22T04:51:33.763Z,815.53
2019-05-22T04:52:33.766Z,815.50
2019-05-22T04:53:33.774Z,815.53
2019-05-22T04:54:33.787Z,815.54
2019-05-22T04:55:33.797Z,815.52
2019-05-22T04:56:33.806Z,815.55
2019-05-22T04:57:33.814Z,815.54
2019-05-22T04:58:33.824Z,815.54
2019-05-22T04:59:33.835Z,815.56
2019-05-22T05:00:33.846Z,815.56
2019-05-22T05:01:33.858Z,815.59
2019-05-22T05:02:33.882Z,815.61
2019-05-22T05:03:33.884Z,815.61
2019-05-22T05:04:33.890Z,815.60
2019-05-22T05:05:33.904Z,815.64
2019-05-22T05:06:33.907Z,815.60
2019-05-22T05:07:33.928Z,815.62
2019-05-22T05:08:33.927Z,815.63
2019-05-22T05:09:33.942Z,815.63
2019-05-22T05:10:33.949Z,815.63
2019-05-22T05:11:33.970Z,815.63
2019-05-22T05:12:33.970Z,815.64
2019-05-22T05:13:33.983Z,815.63
2019-05-22T05:14:33.989Z,815.68
2019-05-22T05:15:37.156Z,815.67
2019-05-22T05:16:34.009Z,815.65
2019-05-22T05:17:34.024Z,815.68
2019-05-22T05:18:34.036Z,815.64
2019-05-22T05:19:34.045Z,815.69
2019-05-22T05:20:34.053Z,815.65
2019-05-22T05:21:34.063Z,815.68
2019-05-22T05:22:34.078Z,815.62
2019-05-22T05:23:34.082Z,815.69
2019-05-22T05:24:34.096Z,815.67
2019-05-22T05:25:34.134Z,815.69
2019-05-22T05:26:34.116Z,815.70
2019-05-22T05:27:34.134Z,815.69
2019-05-22T05:28:34.139Z,815.71
2019-05-22T05:29:34.147Z,815.70
2019-05-22T05:30:34.153Z,815.73
2019-05-22T05:31:34.169Z,815.71
2019-05-22T05:32:34.178Z,815.75
2019-05-22T05:33:34.190Z,815.71
2019-05-22T05:34:34.201Z,815.74
2019-05-22T05:35:34.205Z,815.77
2019-05-22T05:36:34.217Z,815.75
2019-05-22T05:37:34.229Z,815.71
2019-05-22T05:38:34.241Z,815.73
2019-05-22T05:39:34.263Z,815.75
2019-05-22T05:40:34.265Z,815.78
2019-05-22T05:41:34.277Z,815.78
2019-05-22T05:42:34.285Z,815.73
2019-05-22T05:43:34.295Z,815.76
2019-05-22T05:44:34.298Z,815.76
2019-05-22T05:45:34.319Z,815.78
2019-05-22T05:46:34.323Z,815.78
2019-05-22T05:47:34.334Z,815.79
2019-05-22T05:48:34.344Z,815.82
2019-05-22T05:49:34.355Z,815.81
2019-05-22T05:50:39.724Z,815.83
2019-05-22T05:51:34.372Z,815.84
2019-05-22T05:52:34.394Z,815.86
2019-05-22T05:53:34.399Z,815.85
2019-05-22T05:54:34.408Z,815.85
2019-05-22T05:55:34.415Z,815.80
2019-05-22T05:56:34.430Z,815.82
2019-05-22T05:57:34.439Z,815.84
2019-05-22T05:58:34.448Z,815.85
2019-05-22T05:59:34.460Z,815.84
2019-05-22T06:00:34.498Z,815.85
2019-05-22T06:01:34.483Z,815.85
2019-05-22T06:02:34.528Z,815.84
2019-05-22T06:03:34.502Z,815.82
2019-05-22T06:04:35.449Z,815.83
2019-05-22T06:05:34.526Z,815.84
2019-05-22T06:06:34.532Z,815.84
2019-05-22T06:07:34.552Z,815.87
2019-05-22T06:08:34.555Z,815.88
2019-05-22T06:09:34.592Z,815.90
2019-05-22T06:10:34.584Z,815.91
2019-05-22T06:11:34.585Z,815.90
2019-05-22T06:12:34.596Z,815.92
2019-05-22T06:13:34.613Z,815.92
2019-05-22T06:14:34.622Z,815.91
2019-05-22T06:15:46.406Z,815.91
2019-05-22T06:16:34.702Z,815.92
2019-05-22T06:17:34.653Z,815.92
2019-05-22T06:18:34.685Z,815.93
2019-05-22T06:19:34.669Z,815.93
2019-05-22T06:20:34.681Z,815.92
2019-05-22T06:21:34.691Z,815.92
2019-05-22T06:22:34.702Z,815.92
2019-05-22T06:23:34.731Z,815.95
2019-05-22T06:24:34.725Z,815.96
2019-05-22T06:25:34.739Z,815.98
2019-05-22T06:26:34.749Z,815.94
2019-05-22T06:27:34.761Z,815.94
2019-05-22T06:28:34.776Z,815.96
2019-05-22T06:29:34.778Z,815.96
2019-05-22T06:30:34.794Z,815.95
2019-05-22T06:31:34.799Z,815.98
2019-05-22T06:32:34.808Z,815.99
2019-05-22T06:33:34.829Z,815.98
2019-05-22T06:34:34.834Z,815.97
2019-05-22T06:35:34.850Z,816.00
2019-05-22T06:36:34.854Z,816.00
2019-05-22T06:37:34.863Z,815.98
2019-05-22T06:38:34.879Z,815.96
2019-05-22T06:39:34.895Z,815.94
2019-05-22T06:40:34.900Z,815.98
2019-05-22T06:41:34.904Z,815.96
2019-05-22T06:42:34.915Z,815.98
2019-05-22T06:43:34.928Z,815.98
2019-05-22T06:44:34.936Z,816.00
2019-05-22T06:45:35.629Z,815.96
2019-05-22T06:46:34.962Z,816.00
2019-05-22T06:47:34.974Z,816.01
2019-05-22T06:48:34.978Z,816.01
2019-05-22T06:49:34.995Z,816.01
2019-05-22T06:50:34.999Z,815.99
2019-05-22T06:51:35.014Z,815.98
2019-05-22T06:52:35.025Z,815.99
2019-05-22T06:53:35.032Z,815.98
2019-05-22T06:54:35.047Z,815.95
2019-05-22T06:55:35.054Z,815.94
2019-05-22T06:56:35.066Z,815.95
2019-05-22T06:57:35.084Z,815.93
2019-05-22T06:58:35.088Z,815.93
2019-05-22T06:59:35.096Z,815.93
2019-05-22T07:00:35.121Z,815.96
2019-05-22T07:01:35.122Z,815.94
2019-05-22T07:02:35.128Z,815.98
2019-05-22T07:03:35.139Z,815.96
2019-05-22T07:04:35.153Z,815.97
2019-05-22T07:05:35.162Z,815.96
2019-05-22T07:06:35.180Z,815.97
2019-05-22T07:07:35.189Z,815.97
2019-05-22T07:08:35.196Z,815.92
2019-05-22T07:09:35.211Z,815.97
2019-05-22T07:10:35.214Z,815.97
2019-05-22T07:11:35.227Z,815.98
2019-05-22T07:12:35.242Z,815.96
2019-05-22T07:13:35.243Z,815.98
2019-05-22T07:14:35.264Z,815.92
2019-05-22T07:15:35.265Z,815.92
2019-05-22T07:16:35.276Z,815.93
2019-05-22T07:17:35.293Z,815.92
2019-05-22T07:18:35.299Z,815.93
2019-05-22T07:19:35.311Z,815.90
2019-05-22T07:20:35.323Z,815.93
2019-05-22T07:21:35.332Z,815.95
2019-05-22T07:22:35.357Z,815.92
2019-05-22T07:23:35.354Z,815.93
2019-05-22T07:24:35.363Z,815.93
2019-05-22T07:25:35.386Z,815.93
2019-05-22T07:26:35.384Z,815.92
2019-05-22T07:27:35.396Z,815.94
2019-05-22T07:28:35.411Z,815.96
2019-05-22T07:29:35.419Z,815.97
2019-05-22T07:30:35.430Z,815.98
2019-05-22T07:31:35.437Z,815.95
2019-05-22T07:32:35.451Z,815.95
2019-05-22T07:33:35.458Z,815.95
2019-05-22T07:34:35.478Z,815.98
2019-05-22T07:35:56.397Z,816.01
2019-05-22T07:36:35.496Z,816.00
2019-05-22T07:37:35.502Z,815.99
2019-05-22T07:38:35.518Z,815.98
2019-05-22T07:39:35.529Z,816.01
2019-05-22T07:40:35.646Z,815.95
2019-05-22T07:41:35.546Z,815.95
2019-05-22T07:42:35.559Z,815.96
2019-05-22T07:43:35.571Z,815.97
2019-05-22T07:44:35.586Z,815.96
2019-05-22T07:45:35.597Z,815.97
2019-05-22T07:46:35.604Z,815.97
2019-05-22T07:47:35.629Z,815.89
2019-05-22T07:48:35.625Z,815.95
2019-05-22T07:49:35.637Z,815.92
2019-05-22T07:50:35.694Z,815.92
2019-05-22T07:51:50.451Z,815.92
2019-05-22T07:52:35.675Z,815.94
2019-05-22T07:53:35.687Z,815.92
2019-05-22T07:54:35.695Z,815.93
2019-05-22T07:55:35.703Z,815.92
2019-05-22T07:56:35.720Z,815.94
2019-05-22T07:57:35.728Z,815.96
2019-05-22T07:58:35.740Z,815.91
2019-05-22T07:59:35.764Z,815.94
2019-05-22T08:00:35.758Z,815.93
2019-05-22T08:01:35.775Z,815.92
2019-05-22T08:02:35.783Z,815.95
2019-05-22T08:03:35.810Z,815.91
2019-05-22T08:04:35.803Z,815.93
2019-05-22T08:05:35.814Z,815.96
2019-05-22T08:06:35.827Z,815.98
2019-05-22T08:07:35.842Z,815.93
2019-05-22T08:08:35.849Z,815.99
2019-05-22T08:09:35.886Z,815.95
2019-05-22T08:10:35.872Z,815.94
2019-05-22T08:11:35.884Z,815.93
2019-05-22T08:12:35.899Z,815.93
2019-05-22T08:13:35.909Z,815.99
2019-05-22T08:14:35.916Z,815.97
2019-05-22T08:15:35.932Z,816.00
2019-05-22T08:16:35.941Z,815.97
2019-05-22T08:17:35.997Z,816.00
2019-05-22T08:18:35.977Z,816.02
2019-05-22T08:19:35.976Z,815.99
2019-05-22T08:20:35.987Z,816.00
2019-05-22T08:21:35.999Z,816.02
2019-05-22T08:22:36.011Z,816.03
2019-05-22T08:23:36.026Z,816.04
2019-05-22T08:24:36.029Z,816.03
2019-05-22T08:25:36.048Z,816.06
2019-05-22T08:26:53.422Z,816.04
2019-05-22T08:27:36.077Z,816.04
2019-05-22T08:28:36.086Z,816.07
2019-05-22T08:29:36.091Z,816.06
2019-05-22T08:30:36.107Z,816.07
2019-05-22T08:31:36.120Z,816.10
2019-05-22T08:32:36.127Z,816.12
2019-05-22T08:33:36.136Z,816.11
2019-05-22T08:34:36.149Z,816.12
2019-05-22T08:35:36.167Z,816.11
2019-05-22T08:36:38.597Z,816.12
2019-05-22T08:37:36.184Z,816.15
2019-05-22T08:38:36.204Z,816.19
2019-05-22T08:39:36.216Z,816.18
2019-05-22T08:40:36.221Z,816.22
2019-05-22T08:41:36.233Z,816.18
2019-05-22T08:42:36.248Z,816.23
2019-05-22T08:43:55.936Z,816.21
2019-05-22T08:44:36.270Z,816.18
2019-05-22T08:45:36.287Z,816.19
2019-05-22T08:46:36.307Z,816.23
2019-05-22T08:47:36.310Z,816.25
2019-05-22T08:48:36.320Z,816.21
2019-05-22T08:49:36.330Z,816.25
2019-05-22T08:50:36.343Z,816.22
2019-05-22T08:51:36.359Z,816.23
2019-05-22T08:52:36.373Z,816.26
2019-05-22T08:53:46.734Z,816.28
2019-05-22T08:54:36.409Z,816.23
2019-05-22T08:55:36.640Z,816.25
2019-05-22T08:56:36.420Z,816.24
2019-05-22T08:57:36.431Z,816.23
2019-05-22T08:58:36.449Z,816.26
2019-05-22T08:59:36.458Z,816.20
2019-05-22T09:00:36.473Z,816.21
2019-05-22T09:01:36.483Z,816.24
2019-05-22T09:02:36.717Z,816.23
2019-05-22T09:03:36.511Z,816.27
2019-05-22T09:04:36.527Z,816.24
2019-05-22T09:05:36.536Z,816.24
2019-05-22T09:06:36.580Z,816.25
2019-05-22T09:07:36.567Z,816.22
2019-05-22T09:08:36.577Z,816.22
2019-05-22T09:09:36.590Z,816.20
2019-05-22T09:10:36.607Z,816.22
2019-05-22T09:11:36.618Z,816.20
2019-05-22T09:12:36.662Z,816.22
2019-05-22T09:13:36.650Z,816.21
2019-05-22T09:14:36.655Z,816.20
2019-05-22T09:15:36.668Z,816.22
2019-05-22T09:16:36.680Z,816.22
2019-05-22T09:17:36.699Z,816.22
2019-05-22T09:18:36.718Z,816.22
2019-05-22T09:19:36.720Z,816.20
2019-05-22T09:20:48.793Z,816.28
2019-05-22T09:21:40.434Z,816.23
2019-05-22T09:22:40.496Z,816.27
2019-05-22T09:23:36.773Z,816.30
2019-05-22T09:24:36.924Z,816.22
2019-05-22T09:25:36.803Z,816.24
2019-05-22T09:26:36.813Z,816.26
2019-05-22T09:27:36.827Z,816.31
2019-05-22T09:28:36.840Z,816.30
2019-05-22T09:29:36.855Z,816.30
2019-05-22T09:30:36.873Z,816.33
2019-05-22T09:31:36.883Z,816.31
2019-05-22T09:32:36.892Z,816.34
2019-05-22T09:33:36.915Z,816.29
2019-05-22T09:34:36.928Z,816.35
2019-05-22T09:35:36.933Z,816.28
2019-05-22T09:36:36.946Z,816.33
2019-05-22T09:37:36.964Z,816.32
2019-05-22T09:38:36.997Z,816.34
2019-05-22T09:39:36.988Z,816.36
2019-05-22T09:40:37.006Z,816.40
2019-05-22T09:41:37.015Z,816.44
2019-05-22T09:42:37.052Z,816.41
2019-05-22T09:43:37.045Z,816.40
2019-05-22T09:44:37.054Z,816.47
2019-05-22T09:45:37.108Z,816.43
2019-05-22T09:46:37.082Z,816.47
2019-05-22T09:47:37.098Z,816.45
2019-05-22T09:48:37.106Z,816.46
2019-05-22T09:49:37.135Z,816.48
2019-05-22T09:50:37.137Z,816.42
2019-05-22T09:51:37.148Z,816.47
2019-05-22T09:52:37.162Z,816.50
2019-05-22T09:53:37.177Z,816.49
2019-05-22T09:54:37.186Z,816.47
2019-05-22T09:55:37.219Z,816.46
2019-05-22T09:56:37.215Z,816.53
2019-05-22T09:57:37.232Z,816.51
2019-05-22T09:58:37.243Z,816.46
2019-05-22T09:59:37.256Z,816.50
2019-05-22T10:00:37.272Z,816.55
2019-05-22T10:01:37.281Z,816.49
2019-05-22T10:02:37.300Z,816.42
2019-05-22T10:03:37.315Z,816.45
2019-05-22T10:04:37.327Z,816.45
2019-05-22T10:05:37.399Z,816.49
2019-05-22T10:06:37.352Z,816.47
2019-05-22T10:07:37.372Z,816.43
2019-05-22T10:08:37.382Z,816.43
2019-05-22T10:09:37.398Z,816.46
2019-05-22T10:10:37.411Z,816.38
2019-05-22T10:11:37.423Z,816.47
2019-05-22T10:12:37.438Z,816.50
2019-05-22T10:13:37.539Z,816.51
2019-05-22T10:14:37.587Z,816.47
2019-05-22T10:15:37.483Z,816.51
2019-05-22T10:16:37.493Z,816.45
2019-05-22T10:17:37.511Z,816.47
2019-05-22T10:18:37.537Z,816.42
2019-05-22T10:19:37.536Z,816.41
2019-05-22T10:20:37.548Z,816.43
2019-05-22T10:21:37.567Z,816.40
2019-05-22T10:22:37.583Z,816.40
2019-05-22T10:23:37.593Z,816.41
2019-05-22T10:24:37.605Z,816.47
2019-05-22T10:25:37.627Z,816.44
2019-05-22T10:26:37.634Z,816.45
2019-05-22T10:27:37.649Z,816.48
2019-05-22T10:28:37.666Z,816.41
2019-05-22T10:29:37.684Z,816.44
2019-05-22T10:30:37.689Z,816.42
2019-05-22T10:31:37.707Z,816.44
2019-05-22T10:32:37.716Z,816.43
2019-05-22T10:33:37.730Z,816.49
2019-05-22T10:34:37.745Z,816.47
2019-05-22T10:35:37.761Z,816.45
2019-05-22T10:36:37.777Z,816.41
2019-05-22T10:37:37.795Z,816.47
2019-05-22T10:38:37.803Z,816.41
2019-05-22T10:39:37.819Z,816.39
2019-05-22T10:40:37.829Z,816.41
2019-05-22T10:41:37.847Z,816.41
2019-05-22T10:42:37.867Z,816.34
2019-05-22T10:43:37.872Z,816.39
2019-05-22T10:44:37.888Z,816.37
2019-05-22T10:45:37.905Z,816.42
2019-05-22T10:46:37.920Z,816.43
2019-05-22T10:47:37.954Z,816.42
2019-05-22T10:48:40.442Z,816.42
2019-05-22T10:49:37.965Z,816.34
2019-05-22T10:50:37.983Z,816.40
2019-05-22T10:51:37.994Z,816.40
2019-05-22T10:52:38.096Z,816.43
2019-05-22T10:53:38.025Z,816.42
2019-05-22T10:54:38.035Z,816.42
2019-05-22T10:55:38.049Z,816.40
2019-05-22T10:56:38.063Z,816.35
2019-05-22T10:57:40.776Z,816.36
2019-05-22T10:58:38.096Z,816.37
2019-05-22T10:59:38.112Z,816.43
2019-05-22T11:00:38.137Z,816.38
2019-05-22T11:01:38.140Z,816.39
2019-05-22T11:02:38.156Z,816.49
2019-05-22T11:03:38.172Z,816.32
2019-05-22T11:04:38.187Z,816.33
2019-05-22T11:05:38.200Z,816.40
2019-05-22T11:06:38.215Z,816.39
2019-05-22T11:07:38.231Z,816.39
2019-05-22T11:08:38.244Z,816.33
2019-05-22T11:09:38.261Z,816.36
2019-05-22T11:10:38.279Z,816.29
2019-05-22T11:11:38.302Z,816.24
2019-05-22T11:12:38.622Z,816.32
2019-05-22T11:13:38.318Z,816.31
2019-05-22T11:14:38.340Z,816.28
2019-05-22T11:15:38.352Z,816.37
2019-05-22T11:16:38.362Z,816.32
2019-05-22T11:17:38.382Z,816.31
2019-05-22T11:18:38.401Z,816.32
2019-05-22T11:19:38.411Z,816.28
2019-05-22T11:20:38.429Z,816.31
2019-05-22T11:21:38.442Z,816.36
2019-05-22T11:22:38.457Z,816.39
2019-05-22T11:23:51.433Z,816.37
2019-05-22T11:24:38.487Z,816.30
2019-05-22T11:25:38.510Z,816.32
2019-05-22T11:26:38.516Z,816.40
2019-05-22T11:27:38.532Z,816.36
2019-05-22T11:28:38.544Z,816.38
2019-05-22T11:29:38.559Z,816.38
2019-05-22T11:30:38.599Z,816.35
2019-05-22T11:31:38.595Z,816.39
2019-05-22T11:32:38.608Z,816.39
2019-05-22T11:33:38.623Z,816.36
2019-05-22T11:34:38.633Z,816.31
2019-05-22T11:35:38.650Z,816.32
2019-05-22T11:36:38.663Z,816.42
2019-05-22T11:37:38.678Z,816.37
2019-05-22T11:38:38.699Z,816.32
2019-05-22T11:39:42.441Z,816.34
2019-05-22T11:40:38.725Z,816.33
2019-05-22T11:41:38.740Z,816.42
2019-05-22T11:42:38.756Z,816.40
2019-05-22T11:43:38.779Z,816.38
2019-05-22T11:44:38.785Z,816.44
2019-05-22T11:45:38.801Z,816.42
2019-05-22T11:46:38.817Z,816.44
2019-05-22T11:47:38.826Z,816.40
2019-05-22T11:48:38.843Z,816.36
2019-05-22T11:49:38.863Z,816.42
2019-05-22T11:50:38.874Z,816.37
2019-05-22T11:51:38.888Z,816.45
2019-05-22T11:52:38.954Z,816.41
2019-05-22T11:53:38.923Z,816.41
2019-05-22T11:54:38.936Z,816.44
2019-05-22T11:55:45.355Z,816.50
2019-05-22T11:56:38.966Z,816.49
2019-05-22T11:57:38.980Z,816.49
2019-05-22T11:58:38.994Z,816.46
2019-05-22T11:59:39.012Z,816.45
2019-05-22T12:00:39.031Z,816.42
2019-05-22T12:01:39.043Z,816.50
2019-05-22T12:02:39.060Z,816.32
2019-05-22T12:03:39.078Z,816.48
2019-05-22T12:04:48.083Z,816.40
2019-05-22T12:05:39.102Z,816.40
2019-05-22T12:06:39.130Z,816.49
2019-05-22T12:07:39.134Z,816.39
2019-05-22T12:08:39.188Z,816.43
2019-05-22T12:09:39.163Z,816.38
2019-05-22T12:10:39.184Z,816.35
2019-05-22T12:11:42.903Z,816.48
2019-05-22T12:12:39.228Z,816.42
2019-05-22T12:13:39.228Z,816.40
2019-05-22T12:14:39.244Z,816.45
2019-05-22T12:15:39.321Z,816.54
2019-05-22T12:16:39.278Z,816.46
2019-05-22T12:17:39.293Z,816.53
2019-05-22T12:18:39.309Z,816.44
2019-05-22T12:19:39.342Z,816.47
2019-05-22T12:20:39.362Z,816.47
2019-05-22T12:21:39.371Z,816.44
2019-05-22T12:22:39.372Z,816.50
2019-05-22T12:23:39.384Z,816.41
2019-05-22T12:24:39.404Z,816.47
2019-05-22T12:25:39.430Z,816.45
2019-05-22T12:26:39.439Z,816.55
2019-05-22T12:27:39.451Z,816.51
2019-05-22T12:28:39.466Z,816.47